Time;durP1;ratioP1;P1;durP2;ratioP2;P2;SDS_P1;SDS_P2;PMS_P1;PMS_P2;Temp;Humidity;BMP_temperature;BMP_pressure;BME280_temperature;BME280_humidity;BME280_pressure;Samples;Min_cycle;Max_cycle;Signal;HPM_P1;HPM_P2
2021/11/12 00:04:09;;;;;;;97.03;44.60;;;4.40;91.70;;;;;;5049365;28;20490;-78
2021/11/12 00:14:49;;;;;;;89.75;42.45;;;4.30;91.10;;;;;;5040450;28;20882;-78
2021/11/12 00:17:17;;;;;;;90.15;42.95;;;4.20;91.60;;;;;;5035896;28;20426;-78
2021/11/12 00:19:43;;;;;;;89.18;43.92;;;4.20;92.00;;;;;;5034924;28;20403;-79
2021/11/12 00:22:10;;;;;;;93.28;43.15;;;4.20;93.00;;;;;;5034862;28;20389;-78
2021/11/12 00:24:36;;;;;;;103.57;45.05;;;4.10;92.10;;;;;;5020192;28;20409;-79
2021/11/12 00:27:04;;;;;;;93.10;44.13;;;4.10;92.80;;;;;;5029291;28;20437;-78
2021/11/12 00:29:32;;;;;;;93.05;41.97;;;4.10;93.10;;;;;;5038501;28;20391;-79
2021/11/12 00:32:06;;;;;;;86.45;42.63;;;4.20;92.70;;;;;;5038663;28;20896;-78
2021/11/12 00:37:44;;;;;;;85.55;42.08;;;4.10;91.30;;;;;;5029251;28;20406;-78
2021/11/12 00:40:17;;;;;;;86.15;42.55;;;4.20;91.60;;;;;;5034510;28;20442;-77
2021/11/12 00:45:10;;;;;;;92.10;43.45;;;4.00;92.80;;;;;;5038758;28;20402;-78
2021/11/12 00:55:25;;;;;;;97.18;46.10;;;3.80;93.80;;;;;;5046005;28;20453;-77
2021/11/12 00:57:53;;;;;;;97.97;45.72;;;3.80;94.50;;;;;;5043932;28;20403;-79
2021/11/12 01:00:20;;;;;;;98.57;45.42;;;3.80;94.80;;;;;;5034796;28;20414;-78
2021/11/12 01:02:46;;;;;;;99.47;45.63;;;3.70;95.90;;;;;;5043947;28;20379;-80
2021/11/12 01:05:12;;;;;;;96.22;45.40;;;3.70;96.10;;;;;;5044533;28;20418;-79
2021/11/12 01:07:38;;;;;;;96.37;45.20;;;3.70;97.30;;;;;;5040880;28;20486;-74
2021/11/12 01:10:06;;;;;;;100.65;46.88;;;3.70;96.90;;;;;;5058337;28;20398;-79
2021/11/12 01:12:33;;;;;;;103.25;45.17;;;3.70;97.10;;;;;;5051026;28;20392;-80
2021/11/12 01:14:59;;;;;;;93.63;45.07;;;3.80;97.20;;;;;;5043787;28;20391;-77
2021/11/12 01:17:24;;;;;;;109.40;45.50;;;3.80;95.80;;;;;;5036607;28;20399;-76
2021/11/12 01:19:51;;;;;;;109.13;48.72;;;3.80;96.60;;;;;;5035833;28;20756;-79
2021/11/12 01:22:17;;;;;;;108.05;48.35;;;3.70;96.10;;;;;;5036967;28;20807;-79
2021/11/12 01:24:43;;;;;;;104.75;49.30;;;3.60;96.10;;;;;;5037042;28;20383;-78
2021/11/12 01:27:09;;;;;;;102.50;47.58;;;3.50;96.90;;;;;;5029101;28;20397;-78
2021/11/12 01:29:37;;;;;;;112.85;49.15;;;3.50;98.30;;;;;;5017281;28;20778;-78
2021/11/12 01:32:19;;;;;;;112.03;48.67;;;3.70;99.00;;;;;;5018420;28;20393;-79
2021/11/12 01:34:46;;;;;;;108.07;47.95;;;3.60;97.00;;;;;;5017636;28;20427;-79
2021/11/12 01:37:14;;;;;;;114.57;50.03;;;3.60;97.20;;;;;;5033833;28;20760;-79
2021/11/12 01:39:40;;;;;;;114.55;51.20;;;3.50;97.70;;;;;;5035907;28;20387;-79
2021/11/12 01:42:05;;;;;;;115.68;49.13;;;3.50;99.10;;;;;;5039340;28;20852;-78
2021/11/12 01:44:36;;;;;;;110.37;49.30;;;3.50;99.90;;;;;;5042555;28;20451;-78
2021/11/12 01:49:34;;;;;;;114.75;49.17;;;3.70;99.90;;;;;;5023005;28;20414;-79
2021/11/12 01:59:45;;;;;;;133.57;53.75;;;3.70;99.90;;;;;;5037638;28;20398;-79
2021/11/12 02:02:11;;;;;;;139.38;56.35;;;3.70;99.90;;;;;;5017722;28;20389;-78
2021/11/12 02:04:37;;;;;;;132.27;54.67;;;3.60;99.40;;;;;;5027333;28;20433;-77
2021/11/12 02:07:03;;;;;;;127.38;53.72;;;3.70;99.10;;;;;;5032844;28;20403;-78
2021/11/12 02:09:30;;;;;;;132.10;54.88;;;3.60;98.20;;;;;;5034553;28;20387;-78
2021/11/12 02:12:06;;;;;;;136.60;56.27;;;3.60;97.80;;;;;;5041449;28;20382;-79
2021/11/12 02:14:33;;;;;;;140.60;56.28;;;3.60;97.70;;;;;;5036684;28;20407;-78
2021/11/12 02:17:10;;;;;;;143.93;56.77;;;3.50;98.00;;;;;;5029959;28;20473;-78
2021/11/12 02:19:36;;;;;;;144.00;55.53;;;3.50;98.10;;;;;;5020043;28;20401;-77
2021/11/12 02:22:11;;;;;;;136.13;56.13;;;3.50;98.00;;;;;;5022341;28;20423;-77
2021/11/12 02:24:45;;;;;;;131.27;53.72;;;3.50;98.00;;;;;;5026138;28;20419;-77
2021/11/12 02:27:13;;;;;;;136.07;54.67;;;3.40;97.80;;;;;;5033029;28;20417;-78
2021/11/12 02:29:45;;;;;;;132.15;54.92;;;3.40;97.40;;;;;;5042022;28;20387;-78
2021/11/12 02:32:19;;;;;;;133.40;54.70;;;3.40;97.90;;;;;;5047798;28;20383;-78
2021/11/12 02:34:47;;;;;;;120.77;52.73;;;3.40;98.00;;;;;;5044610;28;20403;-78
2021/11/12 02:37:13;;;;;;;133.85;51.55;;;3.40;97.70;;;;;;5033405;28;20872;-78
2021/11/12 02:39:39;;;;;;;122.00;50.15;;;3.30;97.30;;;;;;5035454;28;20841;-78
2021/11/12 02:42:05;;;;;;;115.97;48.80;;;3.30;97.40;;;;;;5036054;28;20438;-77
2021/11/12 02:44:34;;;;;;;123.07;48.80;;;3.30;96.60;;;;;;5035448;28;20756;-78
2021/11/12 02:47:00;;;;;;;109.07;46.92;;;3.30;96.30;;;;;;5034874;28;20383;-78
2021/11/12 02:49:25;;;;;;;112.23;46.40;;;3.20;95.40;;;;;;5034763;28;20455;-78
2021/11/12 02:51:51;;;;;;;103.90;46.97;;;3.20;96.00;;;;;;5035052;28;20387;-78
2021/11/12 02:54:17;;;;;;;107.72;45.78;;;3.10;95.80;;;;;;5034262;28;20485;-76
2021/11/12 02:56:44;;;;;;;98.83;44.53;;;3.10;95.90;;;;;;5034270;28;20830;-77
2021/11/12 02:59:12;;;;;;;93.95;44.60;;;3.20;95.90;;;;;;5016523;28;20902;-77
2021/11/12 03:01:44;;;;;;;100.35;43.50;;;3.20;95.20;;;;;;5027333;28;20407;-77
2021/11/12 03:04:10;;;;;;;100.90;43.50;;;3.10;95.90;;;;;;5035252;28;20403;-77
2021/11/12 03:06:36;;;;;;;98.13;42.47;;;3.00;96.70;;;;;;5035588;28;20379;-77
2021/11/12 03:09:06;;;;;;;91.60;41.50;;;3.00;96.80;;;;;;5018018;28;20473;-77
2021/11/12 03:11:34;;;;;;;94.70;40.50;;;3.00;96.80;;;;;;5014280;28;20412;-78
2021/11/12 03:14:00;;;;;;;88.40;40.25;;;3.00;97.90;;;;;;5023465;28;20953;-78
2021/11/12 03:16:26;;;;;;;88.18;40.15;;;3.00;97.40;;;;;;5039139;28;20414;-78
2021/11/12 03:18:52;;;;;;;84.60;39.05;;;3.00;97.70;;;;;;5038382;28;20391;-77
2021/11/12 03:21:21;;;;;;;96.25;38.97;;;3.10;98.30;;;;;;5038880;28;20422;-79
2021/11/12 03:24:00;;;;;;;91.40;39.10;;;3.00;98.20;;;;;;5033948;28;20391;-74
2021/11/12 03:26:37;;;;;;;82.57;37.40;;;3.00;99.00;;;;;;5036675;28;20387;-78
2021/11/12 05:26:02;;;;;;;63.47;30.40;;;4.30;93.20;;;;;;5038650;28;20421;-78
2021/11/12 05:44:56;;;;;;;40.90;22.02;;;4.60;90.20;;;;;;5049407;28;20763;-78
2021/11/12 05:50:11;;;;;;;47.15;21.55;;;4.60;87.30;;;;;;5036954;28;20413;-78
2021/11/12 05:55:21;;;;;;;43.42;21.65;;;4.60;87.00;;;;;;5034929;28;20402;-79
2021/11/12 05:57:47;;;;;;;41.47;21.73;;;4.70;87.90;;;;;;5035725;28;20391;-79
2021/11/12 06:00:15;;;;;;;48.40;22.63;;;4.70;89.10;;;;;;5034926;28;20415;-78
2021/11/12 06:02:41;;;;;;;43.55;22.00;;;4.70;89.20;;;;;;5017201;28;20720;-78
2021/11/12 06:05:07;;;;;;;44.15;22.35;;;4.80;89.20;;;;;;5027151;28;20876;-80
2021/11/12 06:07:33;;;;;;;46.63;22.15;;;4.80;89.90;;;;;;5036409;28;20748;-80
2021/11/12 06:09:59;;;;;;;42.50;22.20;;;4.90;90.10;;;;;;5037120;28;20437;-81
2021/11/12 06:12:27;;;;;;;45.47;23.80;;;5.00;89.60;;;;;;5038034;28;20415;-81
2021/11/12 06:14:54;;;;;;;43.22;21.90;;;5.00;87.90;;;;;;5039791;28;20891;-80
2021/11/12 06:17:19;;;;;;;48.15;23.02;;;5.00;87.90;;;;;;5038679;28;20904;-80
2021/11/12 06:19:45;;;;;;;47.50;23.93;;;5.00;88.60;;;;;;5037381;28;20399;-79
2021/11/12 06:22:11;;;;;;;47.23;23.20;;;5.10;89.50;;;;;;5034704;28;20465;-81
2021/11/12 06:24:37;;;;;;;43.77;24.00;;;5.20;87.90;;;;;;5037482;28;20403;-79
2021/11/12 06:27:04;;;;;;;56.78;24.60;;;5.30;86.40;;;;;;5036720;28;20391;-80
2021/11/12 06:29:30;;;;;;;48.03;23.60;;;5.30;86.10;;;;;;5041062;28;20401;-80
2021/11/12 06:31:56;;;;;;;47.13;24.30;;;5.40;84.00;;;;;;5044400;28;20399;-79
2021/11/12 06:34:22;;;;;;;48.15;24.67;;;5.40;85.40;;;;;;5041622;28;20405;-80
2021/11/12 06:36:48;;;;;;;44.60;23.70;;;5.40;85.70;;;;;;5040445;28;20470;-81
2021/11/12 06:39:14;;;;;;;47.13;25.33;;;5.40;85.50;;;;;;5042633;28;20390;-79
2021/11/12 06:44:27;;;;;;;44.17;23.80;;;5.40;84.40;;;;;;5046143;28;20394;-80
2021/11/12 06:49:52;;;;;;;49.60;25.77;;;5.60;81.10;;;;;;5017424;28;20399;-81
2021/11/12 06:52:20;;;;;;;45.13;24.63;;;5.60;80.70;;;;;;5027232;28;20405;-80
2021/11/12 06:54:46;;;;;;;46.28;24.17;;;5.70;79.00;;;;;;5038146;28;20466;-80
2021/11/12 06:57:13;;;;;;;49.58;25.38;;;5.70;78.40;;;;;;5038534;28;20390;-81
2021/11/12 06:59:39;;;;;;;48.58;24.88;;;5.70;77.70;;;;;;5038333;28;20872;-82
2021/11/12 07:02:06;;;;;;;50.00;25.25;;;5.80;78.10;;;;;;5027659;28;20601;-81
2021/11/12 07:04:32;;;;;;;51.03;25.37;;;5.80;77.90;;;;;;5037323;28;20383;-82
2021/11/12 07:06:59;;;;;;;49.10;25.20;;;5.80;78.90;;;;;;5038865;28;20405;-81
2021/11/12 07:09:25;;;;;;;52.23;26.00;;;5.90;77.30;;;;;;5038342;28;20379;-82
2021/11/12 07:11:51;;;;;;;52.78;27.33;;;5.80;76.80;;;;;;5029596;28;20472;-82
2021/11/12 07:14:16;;;;;;;53.35;27.52;;;5.80;79.50;;;;;;5023370;28;20817;-81
2021/11/12 07:16:42;;;;;;;56.28;27.20;;;5.80;81.00;;;;;;5021899;28;20434;-81
2021/11/12 07:19:08;;;;;;;62.17;28.88;;;5.90;80.50;;;;;;5019554;28;20380;-80
2021/11/12 07:21:33;;;;;;;56.37;27.90;;;5.90;81.00;;;;;;5023984;28;20414;-80
2021/11/12 07:24:00;;;;;;;61.40;28.30;;;5.90;78.90;;;;;;5040245;28;20395;-79
2021/11/12 07:26:25;;;;;;;56.17;28.17;;;5.90;78.70;;;;;;5051883;28;20407;-79
2021/11/12 07:28:51;;;;;;;56.57;27.43;;;5.90;78.70;;;;;;5050542;28;20391;-79
2021/11/12 07:31:18;;;;;;;62.20;29.30;;;6.00;77.60;;;;;;5055247;28;20399;-79
2021/11/12 07:33:45;;;;;;;58.67;28.70;;;6.00;77.00;;;;;;5047531;28;20479;-80
2021/11/12 07:36:56;;;;;;;57.15;28.80;;;6.00;78.90;;;;;;5039701;28;20521;-81
2021/11/12 07:39:04;;;;;;;61.45;29.27;;;6.10;77.40;;;;;;5040274;28;20490;-80
2021/11/12 07:47:26;;;;;;;56.00;28.27;;;6.30;72.60;;;;;;5039660;28;20398;-81
2021/11/12 07:49:27;;;;;;;54.83;27.40;;;6.20;71.70;;;;;;5035955;28;20434;-78
2021/11/12 07:51:52;;;;;;;50.13;27.08;;;6.30;71.50;;;;;;5024975;28;20424;-79
2021/11/12 07:54:19;;;;;;;51.30;26.70;;;6.30;71.90;;;;;;5024901;28;20523;-78
2021/11/12 07:56:46;;;;;;;53.47;27.40;;;6.40;70.60;;;;;;5034558;28;20458;-80
2021/11/12 07:59:11;;;;;;;53.15;27.60;;;6.50;69.40;;;;;;5046075;28;20395;-78
2021/11/12 08:01:37;;;;;;;54.65;27.23;;;6.50;66.70;;;;;;5041514;28;20411;-79
2021/11/12 08:04:05;;;;;;;52.38;27.58;;;6.50;67.60;;;;;;5042949;28;20430;-79
2021/11/12 08:06:32;;;;;;;46.90;25.02;;;6.60;64.70;;;;;;5045166;28;20418;-78
2021/11/12 08:09:04;;;;;;;45.25;25.33;;;6.50;64.60;;;;;;5048742;28;20380;-79
2021/11/12 08:11:34;;;;;;;48.47;25.50;;;6.50;65.20;;;;;;5048265;28;20404;-78
2021/11/12 08:14:37;;;;;;;47.17;25.63;;;6.50;65.20;;;;;;5045409;28;20411;-76
2021/11/12 08:19:25;;;;;;;48.43;27.07;;;6.40;66.70;;;;;;5033940;28;20380;-77
2021/11/12 08:27:34;;;;;;;55.55;28.33;;;6.60;65.30;;;;;;5058160;28;20474;-79
2021/11/12 08:30:46;;;;;;;65.68;27.73;;;6.80;66.70;;;;;;5038212;28;20420;-80
2021/11/12 08:33:01;;;;;;;54.35;27.88;;;6.90;62.40;;;;;;5048410;28;20452;-79
2021/11/12 08:38:16;;;;;;;58.42;29.25;;;6.80;61.30;;;;;;5047904;28;20431;-78
2021/11/12 08:40:52;;;;;;;54.00;29.83;;;6.80;62.70;;;;;;5044535;28;20454;-78
2021/11/12 08:43:31;;;;;;;56.60;29.55;;;6.80;62.20;;;;;;5028083;28;20449;-77
2021/11/12 08:46:04;;;;;;;57.03;30.02;;;6.80;61.90;;;;;;5028369;28;20435;-76
2021/11/12 08:51:13;;;;;;;50.45;27.90;;;6.90;59.20;;;;;;5039135;28;20391;-79
2021/11/12 08:53:41;;;;;;;50.43;28.00;;;6.90;59.10;;;;;;5033173;28;20495;-76
2021/11/12 08:56:12;;;;;;;53.17;28.58;;;6.80;60.50;;;;;;5025869;28;20444;-76
2021/11/12 08:58:42;;;;;;;53.55;27.45;;;6.70;61.70;;;;;;5019842;28;20529;-77
2021/11/12 09:01:08;;;;;;;48.85;27.13;;;6.80;62.00;;;;;;5029950;28;20423;-76
2021/11/12 09:03:34;;;;;;;50.60;25.27;;;7.10;59.00;;;;;;5057066;28;20386;-77
2021/11/12 09:06:00;;;;;;;45.03;25.92;;;7.10;56.60;;;;;;5049713;28;20398;-77
2021/11/12 09:08:26;;;;;;;47.20;25.50;;;7.10;56.50;;;;;;5040959;28;20859;-77
2021/11/12 09:10:52;;;;;;;48.67;26.10;;;7.10;56.60;;;;;;5043492;28;20438;-74
2021/11/12 09:13:20;;;;;;;46.90;26.53;;;7.20;56.80;;;;;;5038424;28;20977;-76
2021/11/12 09:15:52;;;;;;;49.90;25.70;;;7.10;56.00;;;;;;5012822;28;20428;-77
2021/11/12 09:18:21;;;;;;;47.60;25.93;;;7.20;56.20;;;;;;5028127;28;20928;-77
2021/11/12 09:20:48;;;;;;;93.00;29.80;;;7.30;55.40;;;;;;5038470;28;20436;-75
2021/11/12 09:23:13;;;;;;;60.83;26.75;;;7.50;54.30;;;;;;5028157;28;20392;-76
2021/11/12 09:25:39;;;;;;;49.97;26.45;;;7.50;53.30;;;;;;5031727;28;20391;-76
2021/11/12 09:28:05;;;;;;;53.30;26.10;;;7.50;53.20;;;;;;5031768;28;20433;-75
2021/11/12 09:30:34;;;;;;;57.53;27.53;;;7.60;54.00;;;;;;5031109;28;20395;-76
2021/11/12 09:33:00;;;;;;;45.60;24.52;;;7.70;51.90;;;;;;5013295;28;20781;-77
2021/11/12 09:35:26;;;;;;;45.30;25.40;;;7.80;49.80;;;;;;5012003;28;20459;-75
2021/11/12 09:37:52;;;;;;;47.63;26.47;;;7.80;50.30;;;;;;5036706;28;20900;-79
2021/11/12 09:40:20;;;;;;;43.35;24.90;;;7.90;49.70;;;;;;5041097;28;20441;-78
2021/11/12 09:42:47;;;;;;;42.97;24.85;;;8.00;47.80;;;;;;5042731;28;20387;-79
2021/11/12 09:45:14;;;;;;;45.90;26.00;;;8.00;47.50;;;;;;5042885;28;20403;-79
2021/11/12 09:47:41;;;;;;;47.78;26.50;;;8.00;48.00;;;;;;5042297;28;20387;-77
2021/11/12 09:50:12;;;;;;;46.37;26.40;;;8.00;47.30;;;;;;5034774;28;20408;-78
2021/11/12 09:52:40;;;;;;;54.85;27.67;;;8.10;47.70;;;;;;5022483;28;20373;-78
2021/11/12 09:55:06;;;;;;;44.30;25.90;;;8.10;47.50;;;;;;5022870;28;20419;-79
2021/11/12 09:57:32;;;;;;;46.20;25.52;;;8.20;47.00;;;;;;5023052;28;20396;-79
2021/11/12 10:00:01;;;;;;;41.70;23.92;;;8.10;47.50;;;;;;5023868;28;20400;-80
2021/11/12 10:02:29;;;;;;;51.25;25.65;;;8.20;47.70;;;;;;5047816;28;20393;-78
2021/11/12 10:04:54;;;;;;;44.70;26.05;;;8.30;46.70;;;;;;5064400;28;20449;-78
2021/11/12 10:07:21;;;;;;;47.97;25.23;;;8.30;46.40;;;;;;5066730;28;20814;-79
2021/11/12 10:10:08;;;;;;;44.55;25.30;;;8.40;46.50;;;;;;5063121;28;20457;-79
2021/11/12 10:12:37;;;;;;;45.88;25.88;;;8.60;44.20;;;;;;5031891;28;20460;-80
2021/11/12 10:15:16;;;;;;;43.78;25.27;;;8.50;45.30;;;;;;5038331;28;20918;-78
2021/11/12 10:17:47;;;;;;;43.53;25.15;;;8.50;45.20;;;;;;5045023;28;20754;-80
2021/11/12 10:20:16;;;;;;;42.33;24.95;;;8.40;44.30;;;;;;5046749;28;20434;-78
2021/11/12 10:22:45;;;;;;;41.72;24.30;;;8.30;45.20;;;;;;5066104;28;20375;-77
2021/11/12 10:25:12;;;;;;;47.97;25.40;;;8.20;45.80;;;;;;5052161;28;20414;-77
2021/11/12 10:27:40;;;;;;;41.90;24.95;;;8.20;46.30;;;;;;5049278;28;20443;-76
2021/11/12 10:30:15;;;;;;;42.17;24.02;;;8.10;45.40;;;;;;5016904;28;20399;-76
2021/11/12 10:32:42;;;;;;;50.20;25.50;;;8.00;46.50;;;;;;5030792;28;20391;-76
2021/11/12 10:35:22;;;;;;;51.08;25.88;;;7.80;47.90;;;;;;5031157;28;20540;-75
2021/11/12 10:37:48;;;;;;;45.47;24.52;;;7.70;48.30;;;;;;5048641;28;20428;-78
2021/11/12 10:40:18;;;;;;;45.30;25.20;;;7.60;48.50;;;;;;5062906;28;20736;-78
2021/11/12 10:42:54;;;;;;;44.30;25.50;;;7.60;49.30;;;;;;5045671;28;20402;-78
2021/11/12 10:45:23;;;;;;;43.42;24.38;;;7.50;49.60;;;;;;5043319;28;20420;-77
2021/11/12 10:48:01;;;;;;;45.92;25.40;;;7.50;51.00;;;;;;5034581;28;20406;-78
2021/11/12 10:50:29;;;;;;;45.97;25.48;;;7.60;51.60;;;;;;5055519;28;20412;-77
2021/11/12 10:53:05;;;;;;;44.70;23.77;;;7.70;50.00;;;;;;5050873;28;20493;-76
2021/11/12 10:55:31;;;;;;;46.75;24.92;;;7.80;48.70;;;;;;5050918;28;20388;-77
2021/11/12 10:57:59;;;;;;;40.55;24.25;;;8.00;47.60;;;;;;5043923;28;20410;-79
2021/11/12 11:00:25;;;;;;;42.22;24.40;;;8.10;46.60;;;;;;5041532;28;20463;-78
2021/11/12 11:02:57;;;;;;;39.50;22.47;;;8.10;46.40;;;;;;5036370;28;20401;-77
2021/11/12 11:05:26;;;;;;;44.08;25.60;;;8.10;46.10;;;;;;5060513;28;20491;-79
2021/11/12 11:07:54;;;;;;;40.05;24.20;;;8.10;46.00;;;;;;5038941;28;20405;-79
2021/11/12 11:10:27;;;;;;;40.97;23.55;;;8.10;47.30;;;;;;5047399;28;20395;-77
2021/11/12 11:12:54;;;;;;;39.55;22.83;;;8.10;46.00;;;;;;5034033;28;20402;-76
2021/11/12 11:15:34;;;;;;;42.95;24.70;;;8.00;45.80;;;;;;5042810;28;20459;-76
2021/11/12 11:18:29;;;;;;;43.15;22.60;;;8.10;46.50;;;;;;5034317;28;20416;-76
2021/11/12 11:23:55;;;;;;;37.70;22.07;;;8.00;45.70;;;;;;5027302;28;20477;-77
2021/11/12 11:26:46;;;;;;;48.80;23.80;;;8.20;45.20;;;;;;5037141;28;20407;-78
2021/11/12 11:29:23;;;;;;;39.20;21.83;;;8.20;44.80;;;;;;5038127;28;20451;-77
2021/11/12 11:31:50;;;;;;;43.10;22.35;;;8.20;44.50;;;;;;5023392;28;20408;-75
2021/11/12 11:34:17;;;;;;;47.13;22.85;;;8.30;44.00;;;;;;5031512;28;20415;-77
2021/11/12 11:36:46;;;;;;;44.17;24.43;;;8.40;43.30;;;;;;5031317;28;20475;-77
2021/11/12 11:39:15;;;;;;;39.93;23.00;;;8.50;43.00;;;;;;5031217;28;20472;-76
2021/11/12 11:41:43;;;;;;;48.20;23.92;;;8.40;43.20;;;;;;5040957;28;20435;-77
2021/11/12 11:44:17;;;;;;;45.55;24.17;;;8.50;43.10;;;;;;5033102;28;20439;-77
2021/11/12 11:46:45;;;;;;;37.20;21.52;;;8.60;42.20;;;;;;5025965;28;20501;-77
2021/11/12 11:49:16;;;;;;;41.85;21.42;;;8.70;42.00;;;;;;5036439;28;20470;-77
2021/11/12 11:51:52;;;;;;;38.30;21.40;;;8.70;42.20;;;;;;5043779;28;20804;-77
2021/11/12 11:54:21;;;;;;;33.67;20.23;;;8.80;41.90;;;;;;5041536;28;20397;-78
2021/11/12 11:56:49;;;;;;;40.08;21.30;;;8.80;41.30;;;;;;5023309;28;20449;-78
2021/11/12 11:59:24;;;;;;;37.58;21.73;;;8.80;41.30;;;;;;5033200;28;20870;-78
2021/11/12 12:01:53;;;;;;;34.88;20.55;;;8.80;41.50;;;;;;5033243;28;20765;-78
2021/11/12 12:04:19;;;;;;;39.60;21.15;;;8.80;41.80;;;;;;5024203;28;20958;-76
2021/11/12 12:07:03;;;;;;;37.72;20.83;;;8.90;41.20;;;;;;5035753;28;20391;-78
2021/11/12 12:09:52;;;;;;;30.35;18.70;;;9.00;41.50;;;;;;5027386;28;20384;-77
2021/11/12 12:12:39;;;;;;;33.58;20.55;;;9.10;40.30;;;;;;5043003;28;20463;-78
2021/11/12 12:15:04;;;;;;;34.22;20.65;;;9.30;39.50;;;;;;5034896;28;20453;-77
2021/11/12 12:17:36;;;;;;;35.38;20.15;;;9.30;39.20;;;;;;5036720;28;20383;-79
2021/11/12 12:20:15;;;;;;;32.33;19.60;;;9.40;39.20;;;;;;5036223;28;20887;-77
2021/11/12 13:23:13;;;;;;;34.90;17.88;;;11.50;30.00;;;;;;5032552;28;20394;-76
2021/11/12 13:25:42;;;;;;;32.05;18.00;;;11.40;30.30;;;;;;5035240;28;20437;-76
2021/11/12 13:28:33;;;;;;;37.53;17.73;;;11.50;30.10;;;;;;5037110;28;20442;-74
2021/11/12 13:31:11;;;;;;;25.48;16.05;;;11.50;29.70;;;;;;5037924;28;20466;-76
2021/11/12 13:33:42;;;;;;;26.63;16.50;;;11.40;29.50;;;;;;5036488;28;20399;-78
2021/11/12 13:36:28;;;;;;;33.83;17.27;;;11.40;29.90;;;;;;5025528;28;20460;-76
2021/11/12 13:38:59;;;;;;;29.58;17.17;;;11.40;30.10;;;;;;5025401;28;20405;-76
2021/11/12 13:41:49;;;;;;;27.45;17.20;;;11.40;30.10;;;;;;5038113;28;20441;-76
2021/11/12 13:44:19;;;;;;;24.15;16.27;;;11.30;30.20;;;;;;5035946;28;20406;-77
2021/11/12 13:46:54;;;;;;;28.30;17.33;;;11.40;29.70;;;;;;5042929;28;20436;-76
2021/11/12 13:49:34;;;;;;;29.30;17.43;;;11.40;29.80;;;;;;5045712;28;20450;-77
2021/11/12 13:52:12;;;;;;;30.77;16.77;;;11.40;29.70;;;;;;5047940;28;20453;-76
2021/11/12 13:54:40;;;;;;;25.77;16.47;;;11.40;29.80;;;;;;5048573;28;20421;-76
2021/11/12 13:57:18;;;;;;;27.15;16.20;;;11.30;29.80;;;;;;5048700;28;20772;-76
2021/11/12 13:59:57;;;;;;;29.23;16.77;;;11.20;30.00;;;;;;5047435;28;20398;-76
2021/11/12 14:02:23;;;;;;;25.25;16.70;;;11.30;30.10;;;;;;5027464;28;20413;-76
2021/11/12 14:04:50;;;;;;;30.10;17.50;;;11.40;30.70;;;;;;5030887;28;20486;-76
2021/11/12 14:07:25;;;;;;;30.90;16.80;;;11.40;30.60;;;;;;5043259;28;20391;-74
2021/11/12 14:10:03;;;;;;;47.95;22.80;;;11.40;30.00;;;;;;5027364;28;20458;-76
2021/11/12 14:12:31;;;;;;;27.90;16.10;;;11.30;29.50;;;;;;5028319;28;20400;-76
2021/11/12 14:15:08;;;;;;;33.22;17.77;;;11.30;29.50;;;;;;5017836;28;20411;-76
2021/11/12 14:17:37;;;;;;;25.30;15.32;;;11.30;29.60;;;;;;5032502;28;20387;-77
2021/11/12 14:20:25;;;;;;;24.63;16.10;;;11.20;30.00;;;;;;5030668;28;20462;-76
2021/11/12 14:23:09;;;;;;;31.55;15.93;;;11.20;30.00;;;;;;5027266;28;20916;-77
2021/11/12 14:28:45;;;;;;;26.75;16.05;;;11.10;30.20;;;;;;5017511;28;20486;-75
2021/11/12 14:31:32;;;;;;;30.00;16.50;;;11.00;30.70;;;;;;5044169;28;20402;-75
2021/11/12 14:34:17;;;;;;;28.65;16.70;;;10.90;30.90;;;;;;5025011;28;20393;-75
2021/11/12 14:36:56;;;;;;;31.20;17.55;;;10.90;31.50;;;;;;5027945;28;20763;-75
2021/11/12 14:40:10;;;;;;;29.15;17.27;;;10.90;31.80;;;;;;5025603;28;20466;-75
2021/11/12 14:42:43;;;;;;;29.25;17.77;;;10.90;32.20;;;;;;5030766;28;20418;-74
2021/11/12 14:45:09;;;;;;;28.87;16.40;;;10.80;32.10;;;;;;5029559;28;20398;-75
2021/11/12 14:47:42;;;;;;;33.28;17.90;;;10.80;32.60;;;;;;5020534;28;20407;-75
2021/11/12 14:51:29;;;;;;;31.08;18.35;;;10.60;33.10;;;;;;5042109;28;20405;-78
2021/11/12 14:56:20;;;;;;;26.65;16.52;;;10.60;33.10;;;;;;5036306;28;20500;-77
2021/11/12 14:58:59;;;;;;;31.58;17.77;;;10.50;33.70;;;;;;5045757;28;20763;-78
2021/11/12 15:01:27;;;;;;;30.55;17.20;;;10.50;34.00;;;;;;5034272;28;20415;-78
2021/11/12 15:03:53;;;;;;;31.67;18.20;;;10.40;34.20;;;;;;5030113;28;20391;-78
2021/11/12 15:06:22;;;;;;;30.52;17.52;;;10.20;34.80;;;;;;5033406;28;20776;-77
2021/11/12 15:11:34;;;;;;;24.45;15.77;;;10.00;35.60;;;;;;5047818;28;20554;-77
2021/11/12 15:14:10;;;;;;;29.33;16.90;;;9.90;36.00;;;;;;5036673;28;20449;-78
2021/11/12 15:16:38;;;;;;;28.90;16.20;;;9.80;36.60;;;;;;5055279;28;20431;-78
2021/11/12 15:19:06;;;;;;;24.57;16.43;;;9.80;36.90;;;;;;5032674;28;20448;-76
2021/11/12 15:21:38;;;;;;;28.33;16.48;;;9.80;37.10;;;;;;5029125;28;20420;-77
2021/11/12 15:27:08;;;;;;;28.23;16.45;;;9.60;37.10;;;;;;5045693;28;20747;-77
2021/11/12 15:29:34;;;;;;;25.75;16.50;;;9.60;36.70;;;;;;5036670;28;20430;-79
2021/11/12 15:32:14;;;;;;;32.20;17.10;;;9.60;36.30;;;;;;5038646;28;20419;-78
2021/11/12 15:37:32;;;;;;;26.70;16.15;;;9.40;36.70;;;;;;5032022;28;20418;-78
2021/11/12 15:45:38;;;;;;;25.75;16.10;;;9.40;37.00;;;;;;5029941;28;20461;-78
2021/11/12 15:58:37;;;;;;;31.95;17.63;;;9.00;39.30;;;;;;5027304;28;20988;-79
2021/11/12 16:11:51;;;;;;;30.73;18.10;;;8.80;39.50;;;;;;5039419;28;20402;-79
2021/11/12 16:14:24;;;;;;;28.08;17.10;;;8.70;40.30;;;;;;5038353;28;20418;-79
2021/11/12 16:19:28;;;;;;;33.45;18.02;;;8.70;40.90;;;;;;5045519;28;20391;-79
2021/11/12 16:27:10;;;;;;;33.83;19.27;;;8.60;41.80;;;;;;5054402;28;20438;-81
2021/11/12 16:32:04;;;;;;;32.13;18.05;;;8.50;42.40;;;;;;5024609;28;20758;-78
2021/11/12 16:34:35;;;;;;;28.65;17.55;;;8.60;42.70;;;;;;5043968;28;20396;-78
2021/11/12 16:37:02;;;;;;;31.35;18.58;;;8.50;42.30;;;;;;5042333;28;20733;-77
2021/11/12 16:50:14;;;;;;;27.30;17.73;;;8.50;43.40;;;;;;5034487;28;20504;-77
2021/11/12 17:00:57;;;;;;;32.10;18.35;;;8.20;45.00;;;;;;5022503;28;20491;-78
2021/11/12 17:03:39;;;;;;;31.30;17.65;;;8.20;45.30;;;;;;5029640;28;20475;-78
2021/11/12 17:06:18;;;;;;;30.30;17.90;;;8.20;45.70;;;;;;5040401;28;20397;-78
2021/11/12 17:09:00;;;;;;;33.97;18.42;;;8.20;45.30;;;;;;5028019;28;20416;-79
2021/11/12 17:16:50;;;;;;;32.28;17.27;;;8.20;45.80;;;;;;5035817;28;20387;-82
2021/11/12 17:19:44;;;;;;;33.95;18.42;;;8.10;46.30;;;;;;5042028;28;20393;-79
2021/11/12 17:44:50;;;;;;;28.67;17.90;;;7.90;47.50;;;;;;5019765;28;20411;-80
2021/11/12 17:47:10;;;;;;;32.53;19.15;;;7.80;46.30;;;;;;5043537;28;20409;-80
2021/11/12 17:52:50;;;;;;;35.15;18.98;;;7.80;46.40;;;;;;5033919;28;20778;-79
2021/11/12 18:03:34;;;;;;;30.45;19.20;;;7.70;46.20;;;;;;5014175;28;20421;-78
2021/11/12 18:06:17;;;;;;;34.63;18.85;;;7.70;46.20;;;;;;5030962;28;20418;-77
2021/11/12 18:22:07;;;;;;;37.78;20.33;;;7.50;48.10;;;;;;5033123;28;20499;-78
2021/11/12 21:44:45;;;;;;;31.83;18.40;;;7.50;45.70;;;;;;5038828;28;20432;-82
2021/11/12 21:47:11;;;;;;;34.22;18.48;;;7.50;46.40;;;;;;5049165;28;20448;-82
2021/11/12 21:49:36;;;;;;;36.67;20.05;;;7.50;45.70;;;;;;5041446;28;20402;-82
2021/11/12 21:52:03;;;;;;;33.03;17.88;;;7.50;46.40;;;;;;5042799;28;20398;-81
2021/11/12 21:54:28;;;;;;;33.72;18.77;;;7.50;45.60;;;;;;5040692;28;20502;-82
2021/11/12 21:56:56;;;;;;;30.30;17.30;;;7.50;45.70;;;;;;5041468;28;20433;-82
2021/11/12 21:59:22;;;;;;;29.65;17.27;;;7.50;45.90;;;;;;5041747;28;20403;-83
2021/11/12 22:01:49;;;;;;;27.88;17.33;;;7.50;45.70;;;;;;5040743;28;20418;-82
2021/11/12 22:04:15;;;;;;;34.22;17.80;;;7.50;45.50;;;;;;5044031;28;20378;-79
2021/11/12 22:06:40;;;;;;;33.70;17.30;;;7.60;45.00;;;;;;5044955;28;20393;-82
2021/11/12 22:09:07;;;;;;;31.27;18.40;;;7.50;45.90;;;;;;5052278;28;20420;-82
2021/11/12 22:11:34;;;;;;;32.57;18.40;;;7.50;46.90;;;;;;5058923;28;20393;-80
2021/11/12 22:14:01;;;;;;;30.67;18.00;;;7.50;47.50;;;;;;5037825;28;20412;-80
2021/11/12 22:16:27;;;;;;;31.02;17.98;;;7.50;48.50;;;;;;5037440;28;20403;-82
2021/11/12 22:18:52;;;;;;;28.63;17.90;;;7.50;48.70;;;;;;5044959;28;20383;-82
2021/11/12 22:21:19;;;;;;;29.00;17.90;;;7.40;49.10;;;;;;5025024;28;20413;-80
2021/11/12 22:23:45;;;;;;;32.35;18.77;;;7.50;48.80;;;;;;5042797;28;20391;-81
2021/11/12 22:26:12;;;;;;;29.15;17.67;;;7.50;49.80;;;;;;5051652;28;20422;-79
2021/11/12 22:28:37;;;;;;;29.60;17.38;;;7.40;50.10;;;;;;5068597;28;20385;-78
2021/11/12 22:31:04;;;;;;;29.63;17.10;;;7.40;50.80;;;;;;5042208;28;20513;-79
2021/11/12 22:33:30;;;;;;;31.98;17.85;;;7.30;52.20;;;;;;5044388;28;20403;-82